Partly Cloudy Current Weather (METAR) For Amsterdam Schiphol Airport

All times on the weather descriptions are local

Observed at 22:55 - (19 mins ago)

Partly Cloudy

5°C

Partly Cloudy
Clouds: Few Clouds at 1,700ft, Scattered Clouds at 2,500ft
Wind: 200° at 07 knots
Visibility: Greater than 10km
QNH: 1025
Dew Point: 4°C
Runways with a headwind: Runway 24, Runway 27, Runways 18L/C/R

Sunrise Today: 08:29
Sunset Today: 17:16

Forecast Weather (TAF) For Amsterdam Schiphol Airport

Issued at 01:00 - (5 days 1 hr ago)


Runways with a headwind: Unable to determine, wind is clam

Forecast valid until 01:00 on Saturday

METAR/TAF RAW METAR / TAF

EHAM 252155Z 20007KT 9999 FEW017 SCT025 05/04 Q1025 NOSIG

Weather Widget

Put weather from any of our airports on your website with our weather widget.

Find Another Search

Airport Search


Please Wait Please Wait - Loading
Close
Close

Login

Username:

Password:

Remember Me:

Remember me on this computer

Forgotten your password? Get a reset password sent to your registered e-mail address

Close

User Private Message

Subject:

Message: